sensor_id;sensor_type;location;lat;lon;timestamp;P1;durP1;ratioP1;P2;durP2;ratioP2
4186;SDS011;2107;52.306;10.484;2022-09-21T00:01:53;0.00;;;0.00;;
4186;SDS011;2107;52.306;10.484;2022-09-21T00:04:20;0.00;;;0.00;;
4186;SDS011;2107;52.306;10.484;2022-09-21T00:06:47;0.00;;;0.00;;
4186;SDS011;2107;52.306;10.484;2022-09-21T00:09:14;0.00;;;0.00;;
4186;SDS011;2107;52.306;10.484;2022-09-21T00:11:41;0.00;;;0.00;;
4186;SDS011;2107;52.306;10.484;2022-09-21T00:14:08;0.00;;;0.00;;
4186;SDS011;2107;52.306;10.484;2022-09-21T00:16:38;0.00;;;0.00;;
4186;SDS011;2107;52.306;10.484;2022-09-21T00:19:06;0.00;;;0.00;;
4186;SDS011;2107;52.306;10.484;2022-09-21T00:21:33;0.00;;;0.00;;
4186;SDS011;2107;52.306;10.484;2022-09-21T00:24:02;0.00;;;0.00;;
4186;SDS011;2107;52.306;10.484;2022-09-21T00:26:29;0.00;;;0.00;;
4186;SDS011;2107;52.306;10.484;2022-09-21T00:28:58;0.00;;;0.00;;
4186;SDS011;2107;52.306;10.484;2022-09-21T00:31:26;0.00;;;0.00;;
4186;SDS011;2107;52.306;10.484;2022-09-21T00:33:56;0.00;;;0.00;;
4186;SDS011;2107;52.306;10.484;2022-09-21T00:36:24;0.00;;;0.00;;
4186;SDS011;2107;52.306;10.484;2022-09-21T00:38:53;0.00;;;0.00;;
4186;SDS011;2107;52.306;10.484;2022-09-21T00:41:21;0.00;;;0.00;;
4186;SDS011;2107;52.306;10.484;2022-09-21T00:46:44;0.00;;;0.00;;
4186;SDS011;2107;52.306;10.484;2022-09-21T00:49:14;0.00;;;0.00;;
4186;SDS011;2107;52.306;10.484;2022-09-21T00:51:43;0.00;;;0.00;;
4186;SDS011;2107;52.306;10.484;2022-09-21T00:54:10;0.00;;;0.00;;
4186;SDS011;2107;52.306;10.484;2022-09-21T00:56:41;0.00;;;0.00;;
4186;SDS011;2107;52.306;10.484;2022-09-21T00:59:10;0.00;;;0.00;;
4186;SDS011;2107;52.306;10.484;2022-09-21T01:01:39;0.00;;;0.00;;
4186;SDS011;2107;52.306;10.484;2022-09-21T01:04:07;0.00;;;0.00;;
4186;SDS011;2107;52.306;10.484;2022-09-21T01:06:37;0.00;;;0.00;;
4186;SDS011;2107;52.306;10.484;2022-09-21T01:09:05;0.00;;;0.00;;
4186;SDS011;2107;52.306;10.484;2022-09-21T01:11:33;0.00;;;0.00;;
4186;SDS011;2107;52.306;10.484;2022-09-21T01:14:11;0.00;;;0.00;;
4186;SDS011;2107;52.306;10.484;2022-09-21T01:16:52;0.00;;;0.00;;
4186;SDS011;2107;52.306;10.484;2022-09-21T01:22:30;0.00;;;0.00;;
4186;SDS011;2107;52.306;10.484;2022-09-21T01:25:12;0.00;;;0.00;;
4186;SDS011;2107;52.306;10.484;2022-09-21T01:27:53;0.00;;;0.00;;
4186;SDS011;2107;52.306;10.484;2022-09-21T01:30:30;0.00;;;0.00;;
4186;SDS011;2107;52.306;10.484;2022-09-21T01:33:02;0.00;;;0.00;;
4186;SDS011;2107;52.306;10.484;2022-09-21T01:35:32;0.00;;;0.00;;
4186;SDS011;2107;52.306;10.484;2022-09-21T01:38:03;0.00;;;0.00;;
4186;SDS011;2107;52.306;10.484;2022-09-21T01:40:35;0.00;;;0.00;;
4186;SDS011;2107;52.306;10.484;2022-09-21T01:43:05;0.00;;;0.00;;
4186;SDS011;2107;52.306;10.484;2022-09-21T01:45:37;0.00;;;0.00;;
4186;SDS011;2107;52.306;10.484;2022-09-21T01:48:07;0.00;;;0.00;;
4186;SDS011;2107;52.306;10.484;2022-09-21T01:50:36;0.00;;;0.00;;
4186;SDS011;2107;52.306;10.484;2022-09-21T01:53:08;0.00;;;0.00;;
4186;SDS011;2107;52.306;10.484;2022-09-21T01:55:41;0.00;;;0.00;;
4186;SDS011;2107;52.306;10.484;2022-09-21T01:58:11;0.00;;;0.00;;
4186;SDS011;2107;52.306;10.484;2022-09-21T02:00:45;0.00;;;0.00;;
4186;SDS011;2107;52.306;10.484;2022-09-21T02:03:15;0.00;;;0.00;;
4186;SDS011;2107;52.306;10.484;2022-09-21T02:05:46;0.00;;;0.00;;
4186;SDS011;2107;52.306;10.484;2022-09-21T02:08:13;0.00;;;0.00;;
4186;SDS011;2107;52.306;10.484;2022-09-21T02:10:41;0.00;;;0.00;;
4186;SDS011;2107;52.306;10.484;2022-09-21T02:13:12;0.00;;;0.00;;
4186;SDS011;2107;52.306;10.484;2022-09-21T02:15:46;0.00;;;0.00;;
4186;SDS011;2107;52.306;10.484;2022-09-21T02:18:23;0.00;;;0.00;;
4186;SDS011;2107;52.306;10.484;2022-09-21T02:20:59;0.00;;;0.00;;
4186;SDS011;2107;52.306;10.484;2022-09-21T02:23:31;0.00;;;0.00;;
4186;SDS011;2107;52.306;10.484;2022-09-21T02:26:08;0.00;;;0.00;;
4186;SDS011;2107;52.306;10.484;2022-09-21T02:28:41;0.00;;;0.00;;
4186;SDS011;2107;52.306;10.484;2022-09-21T02:31:15;0.00;;;0.00;;
4186;SDS011;2107;52.306;10.484;2022-09-21T02:33:52;0.00;;;0.00;;
4186;SDS011;2107;52.306;10.484;2022-09-21T02:36:25;0.00;;;0.00;;
4186;SDS011;2107;52.306;10.484;2022-09-21T02:38:58;0.00;;;0.00;;
4186;SDS011;2107;52.306;10.484;2022-09-21T02:41:33;0.00;;;0.00;;
4186;SDS011;2107;52.306;10.484;2022-09-21T02:44:06;0.00;;;0.00;;
4186;SDS011;2107;52.306;10.484;2022-09-21T02:46:39;0.00;;;0.00;;
4186;SDS011;2107;52.306;10.484;2022-09-21T02:49:09;0.00;;;0.00;;
4186;SDS011;2107;52.306;10.484;2022-09-21T02:51:41;0.00;;;0.00;;
4186;SDS011;2107;52.306;10.484;2022-09-21T02:54:11;0.00;;;0.00;;
4186;SDS011;2107;52.306;10.484;2022-09-21T02:56:42;0.00;;;0.00;;
4186;SDS011;2107;52.306;10.484;2022-09-21T02:59:13;0.00;;;0.00;;
4186;SDS011;2107;52.306;10.484;2022-09-21T03:01:42;0.00;;;0.00;;
4186;SDS011;2107;52.306;10.484;2022-09-21T03:04:09;0.00;;;0.00;;
4186;SDS011;2107;52.306;10.484;2022-09-21T03:06:36;0.00;;;0.00;;
4186;SDS011;2107;52.306;10.484;2022-09-21T03:09:03;0.00;;;0.00;;
4186;SDS011;2107;52.306;10.484;2022-09-21T03:11:30;0.00;;;0.00;;
4186;SDS011;2107;52.306;10.484;2022-09-21T03:13:57;0.00;;;0.00;;
4186;SDS011;2107;52.306;10.484;2022-09-21T03:16:24;0.00;;;0.00;;
4186;SDS011;2107;52.306;10.484;2022-09-21T03:18:54;0.00;;;0.00;;
4186;SDS011;2107;52.306;10.484;2022-09-21T03:21:21;0.00;;;0.00;;
4186;SDS011;2107;52.306;10.484;2022-09-21T03:23:48;0.00;;;0.00;;
4186;SDS011;2107;52.306;10.484;2022-09-21T03:26:15;0.00;;;0.00;;
4186;SDS011;2107;52.306;10.484;2022-09-21T03:28:46;0.00;;;0.00;;
4186;SDS011;2107;52.306;10.484;2022-09-21T03:31:13;0.00;;;0.00;;
4186;SDS011;2107;52.306;10.484;2022-09-21T03:33:40;0.00;;;0.00;;
4186;SDS011;2107;52.306;10.484;2022-09-21T03:36:08;0.00;;;0.00;;
4186;SDS011;2107;52.306;10.484;2022-09-21T03:38:35;0.00;;;0.00;;
4186;SDS011;2107;52.306;10.484;2022-09-21T03:41:03;0.00;;;0.00;;
4186;SDS011;2107;52.306;10.484;2022-09-21T03:43:30;0.00;;;0.00;;
4186;SDS011;2107;52.306;10.484;2022-09-21T03:45:57;0.00;;;0.00;;
4186;SDS011;2107;52.306;10.484;2022-09-21T03:48:24;0.00;;;0.00;;
4186;SDS011;2107;52.306;10.484;2022-09-21T03:50:51;0.00;;;0.00;;
4186;SDS011;2107;52.306;10.484;2022-09-21T03:53:19;0.00;;;0.00;;
4186;SDS011;2107;52.306;10.484;2022-09-21T03:55:46;0.00;;;0.00;;
4186;SDS011;2107;52.306;10.484;2022-09-21T03:58:13;0.00;;;0.00;;
4186;SDS011;2107;52.306;10.484;2022-09-21T04:00:40;0.00;;;0.00;;
4186;SDS011;2107;52.306;10.484;2022-09-21T04:03:07;0.00;;;0.00;;
4186;SDS011;2107;52.306;10.484;2022-09-21T04:05:34;0.00;;;0.00;;
4186;SDS011;2107;52.306;10.484;2022-09-21T04:08:01;0.00;;;0.00;;
4186;SDS011;2107;52.306;10.484;2022-09-21T04:10:29;0.00;;;0.00;;
4186;SDS011;2107;52.306;10.484;2022-09-21T04:12:58;0.00;;;0.00;;
4186;SDS011;2107;52.306;10.484;2022-09-21T04:15:26;0.00;;;0.00;;
4186;SDS011;2107;52.306;10.484;2022-09-21T04:17:54;0.00;;;0.00;;
4186;SDS011;2107;52.306;10.484;2022-09-21T04:20:21;0.00;;;0.00;;
4186;SDS011;2107;52.306;10.484;2022-09-21T04:22:48;0.00;;;0.00;;
4186;SDS011;2107;52.306;10.484;2022-09-21T04:25:15;0.00;;;0.00;;
4186;SDS011;2107;52.306;10.484;2022-09-21T04:27:44;0.00;;;0.00;;
4186;SDS011;2107;52.306;10.484;2022-09-21T04:30:11;0.00;;;0.00;;
4186;SDS011;2107;52.306;10.484;2022-09-21T04:32:39;0.00;;;0.00;;
4186;SDS011;2107;52.306;10.484;2022-09-21T04:35:06;0.00;;;0.00;;
4186;SDS011;2107;52.306;10.484;2022-09-21T04:37:34;0.00;;;0.00;;
4186;SDS011;2107;52.306;10.484;2022-09-21T04:40:01;0.00;;;0.00;;
4186;SDS011;2107;52.306;10.484;2022-09-21T04:42:29;0.00;;;0.00;;
4186;SDS011;2107;52.306;10.484;2022-09-21T04:44:57;0.00;;;0.00;;
4186;SDS011;2107;52.306;10.484;2022-09-21T04:47:24;0.00;;;0.00;;
4186;SDS011;2107;52.306;10.484;2022-09-21T04:49:51;0.00;;;0.00;;
4186;SDS011;2107;52.306;10.484;2022-09-21T04:52:18;0.00;;;0.00;;
4186;SDS011;2107;52.306;10.484;2022-09-21T04:54:45;0.00;;;0.00;;
4186;SDS011;2107;52.306;10.484;2022-09-21T04:57:12;0.00;;;0.00;;
4186;SDS011;2107;52.306;10.484;2022-09-21T04:59:40;0.00;;;0.00;;
4186;SDS011;2107;52.306;10.484;2022-09-21T05:02:08;0.00;;;0.00;;
4186;SDS011;2107;52.306;10.484;2022-09-21T05:04:35;0.00;;;0.00;;
4186;SDS011;2107;52.306;10.484;2022-09-21T05:07:02;0.00;;;0.00;;
4186;SDS011;2107;52.306;10.484;2022-09-21T05:09:29;0.00;;;0.00;;
4186;SDS011;2107;52.306;10.484;2022-09-21T05:12:14;0.00;;;0.00;;
4186;SDS011;2107;52.306;10.484;2022-09-21T05:14:40;0.00;;;0.00;;
4186;SDS011;2107;52.306;10.484;2022-09-21T05:17:10;0.00;;;0.00;;
4186;SDS011;2107;52.306;10.484;2022-09-21T05:19:37;0.00;;;0.00;;
4186;SDS011;2107;52.306;10.484;2022-09-21T05:22:04;0.00;;;0.00;;
4186;SDS011;2107;52.306;10.484;2022-09-21T05:24:31;0.00;;;0.00;;
4186;SDS011;2107;52.306;10.484;2022-09-21T05:26:59;0.00;;;0.00;;
4186;SDS011;2107;52.306;10.484;2022-09-21T05:29:28;0.00;;;0.00;;
4186;SDS011;2107;52.306;10.484;2022-09-21T05:31:56;0.00;;;0.00;;
4186;SDS011;2107;52.306;10.484;2022-09-21T05:34:39;0.00;;;0.00;;
4186;SDS011;2107;52.306;10.484;2022-09-21T05:37:17;0.00;;;0.00;;
4186;SDS011;2107;52.306;10.484;2022-09-21T05:40:10;0.00;;;0.00;;
4186;SDS011;2107;52.306;10.484;2022-09-21T05:42:37;0.00;;;0.00;;
4186;SDS011;2107;52.306;10.484;2022-09-21T05:45:05;0.00;;;0.00;;
4186;SDS011;2107;52.306;10.484;2022-09-21T05:47:36;0.00;;;0.00;;
4186;SDS011;2107;52.306;10.484;2022-09-21T05:50:13;0.00;;;0.00;;
4186;SDS011;2107;52.306;10.484;2022-09-21T05:52:49;0.00;;;0.00;;
4186;SDS011;2107;52.306;10.484;2022-09-21T05:55:30;0.00;;;0.00;;
4186;SDS011;2107;52.306;10.484;2022-09-21T05:58:09;0.00;;;0.00;;
4186;SDS011;2107;52.306;10.484;2022-09-21T06:00:45;0.00;;;0.00;;
4186;SDS011;2107;52.306;10.484;2022-09-21T06:03:25;0.00;;;0.00;;
4186;SDS011;2107;52.306;10.484;2022-09-21T06:05:55;0.00;;;0.00;;
4186;SDS011;2107;52.306;10.484;2022-09-21T06:08:25;0.00;;;0.00;;
4186;SDS011;2107;52.306;10.484;2022-09-21T06:10:52;0.00;;;0.00;;
4186;SDS011;2107;52.306;10.484;2022-09-21T06:13:19;0.00;;;0.00;;
4186;SDS011;2107;52.306;10.484;2022-09-21T06:15:46;0.00;;;0.00;;
4186;SDS011;2107;52.306;10.484;2022-09-21T06:18:13;0.00;;;0.00;;
4186;SDS011;2107;52.306;10.484;2022-09-21T06:20:40;0.00;;;0.00;;
4186;SDS011;2107;52.306;10.484;2022-09-21T06:23:08;0.10;;;0.10;;
4186;SDS011;2107;52.306;10.484;2022-09-21T06:25:36;0.10;;;0.10;;
4186;SDS011;2107;52.306;10.484;2022-09-21T06:28:04;0.20;;;0.20;;
4186;SDS011;2107;52.306;10.484;2022-09-21T06:30:32;0.30;;;0.30;;
4186;SDS011;2107;52.306;10.484;2022-09-21T06:32:59;0.90;;;0.90;;
4186;SDS011;2107;52.306;10.484;2022-09-21T06:35:28;1.60;;;1.60;;
4186;SDS011;2107;52.306;10.484;2022-09-21T06:37:58;2.30;;;2.30;;
4186;SDS011;2107;52.306;10.484;2022-09-21T06:40:27;3.20;;;3.20;;
4186;SDS011;2107;52.306;10.484;2022-09-21T06:42:55;3.00;;;3.00;;
4186;SDS011;2107;52.306;10.484;2022-09-21T06:45:23;3.30;;;3.30;;
4186;SDS011;2107;52.306;10.484;2022-09-21T06:47:50;3.70;;;3.70;;
4186;SDS011;2107;52.306;10.484;2022-09-21T06:50:17;3.30;;;3.30;;
4186;SDS011;2107;52.306;10.484;2022-09-21T06:52:44;3.80;;;3.80;;
4186;SDS011;2107;52.306;10.484;2022-09-21T06:55:11;3.47;;;3.47;;
4186;SDS011;2107;52.306;10.484;2022-09-21T06:57:39;3.10;;;3.10;;
4186;SDS011;2107;52.306;10.484;2022-09-21T07:00:08;2.20;;;2.20;;
4186;SDS011;2107;52.306;10.484;2022-09-21T07:02:36;2.30;;;2.30;;
4186;SDS011;2107;52.306;10.484;2022-09-21T07:05:03;2.10;;;2.10;;
4186;SDS011;2107;52.306;10.484;2022-09-21T07:07:31;2.23;;;2.23;;
4186;SDS011;2107;52.306;10.484;2022-09-21T07:09:59;1.80;;;1.80;;
4186;SDS011;2107;52.306;10.484;2022-09-21T07:12:26;2.07;;;2.07;;
4186;SDS011;2107;52.306;10.484;2022-09-21T07:14:55;2.70;;;2.70;;
4186;SDS011;2107;52.306;10.484;2022-09-21T07:17:22;1.70;;;1.70;;
4186;SDS011;2107;52.306;10.484;2022-09-21T07:19:49;1.70;;;1.70;;
4186;SDS011;2107;52.306;10.484;2022-09-21T07:22:16;1.60;;;1.60;;
4186;SDS011;2107;52.306;10.484;2022-09-21T07:24:42;1.80;;;1.80;;
4186;SDS011;2107;52.306;10.484;2022-09-21T07:27:09;2.00;;;2.00;;
4186;SDS011;2107;52.306;10.484;2022-09-21T07:29:36;1.70;;;1.70;;
4186;SDS011;2107;52.306;10.484;2022-09-21T07:32:04;1.70;;;1.70;;
4186;SDS011;2107;52.306;10.484;2022-09-21T07:34:33;1.67;;;1.67;;
4186;SDS011;2107;52.306;10.484;2022-09-21T07:37:01;1.60;;;1.60;;
4186;SDS011;2107;52.306;10.484;2022-09-21T07:39:28;1.30;;;1.30;;
4186;SDS011;2107;52.306;10.484;2022-09-21T07:41:55;1.20;;;1.20;;
4186;SDS011;2107;52.306;10.484;2022-09-21T07:44:22;1.23;;;1.23;;
4186;SDS011;2107;52.306;10.484;2022-09-21T07:46:50;2.00;;;2.00;;
4186;SDS011;2107;52.306;10.484;2022-09-21T07:49:19;1.70;;;1.70;;
4186;SDS011;2107;52.306;10.484;2022-09-21T07:51:45;1.50;;;1.50;;
4186;SDS011;2107;52.306;10.484;2022-09-21T07:54:12;1.30;;;1.30;;
4186;SDS011;2107;52.306;10.484;2022-09-21T07:56:40;1.30;;;1.30;;
4186;SDS011;2107;52.306;10.484;2022-09-21T07:59:27;1.10;;;1.10;;
4186;SDS011;2107;52.306;10.484;2022-09-21T08:01:57;0.90;;;0.90;;
4186;SDS011;2107;52.306;10.484;2022-09-21T08:04:25;0.90;;;0.90;;
4186;SDS011;2107;52.306;10.484;2022-09-21T08:06:52;0.53;;;0.53;;
4186;SDS011;2107;52.306;10.484;2022-09-21T08:09:19;0.50;;;0.50;;
4186;SDS011;2107;52.306;10.484;2022-09-21T08:11:46;0.30;;;0.30;;
4186;SDS011;2107;52.306;10.484;2022-09-21T08:14:13;0.30;;;0.30;;
4186;SDS011;2107;52.306;10.484;2022-09-21T08:16:43;0.20;;;0.20;;
4186;SDS011;2107;52.306;10.484;2022-09-21T08:19:11;0.40;;;0.40;;
4186;SDS011;2107;52.306;10.484;2022-09-21T08:21:39;0.40;;;0.40;;
4186;SDS011;2107;52.306;10.484;2022-09-21T08:24:06;0.37;;;0.37;;
4186;SDS011;2107;52.306;10.484;2022-09-21T08:26:33;0.30;;;0.30;;
4186;SDS011;2107;52.306;10.484;2022-09-21T08:29:00;0.40;;;0.40;;
4186;SDS011;2107;52.306;10.484;2022-09-21T08:31:27;0.40;;;0.40;;
4186;SDS011;2107;52.306;10.484;2022-09-21T08:33:55;0.30;;;0.30;;
4186;SDS011;2107;52.306;10.484;2022-09-21T08:36:22;0.40;;;0.40;;
4186;SDS011;2107;52.306;10.484;2022-09-21T08:38:50;0.43;;;0.43;;
4186;SDS011;2107;52.306;10.484;2022-09-21T08:41:19;0.60;;;0.60;;
4186;SDS011;2107;52.306;10.484;2022-09-21T08:43:50;0.70;;;0.70;;
4186;SDS011;2107;52.306;10.484;2022-09-21T08:46:20;0.30;;;0.30;;
4186;SDS011;2107;52.306;10.484;2022-09-21T08:48:49;0.60;;;0.60;;
4186;SDS011;2107;52.306;10.484;2022-09-21T08:51:22;0.40;;;0.40;;
4186;SDS011;2107;52.306;10.484;2022-09-21T08:53:56;0.40;;;0.40;;
4186;SDS011;2107;52.306;10.484;2022-09-21T08:56:28;0.30;;;0.30;;
4186;SDS011;2107;52.306;10.484;2022-09-21T08:58:56;0.40;;;0.40;;
4186;SDS011;2107;52.306;10.484;2022-09-21T09:01:35;0.50;;;0.50;;
4186;SDS011;2107;52.306;10.484;2022-09-21T09:07:16;0.40;;;0.40;;
4186;SDS011;2107;52.306;10.484;2022-09-21T09:09:56;0.30;;;0.30;;
4186;SDS011;2107;52.306;10.484;2022-09-21T09:12:35;0.20;;;0.20;;
4186;SDS011;2107;52.306;10.484;2022-09-21T09:15:19;0.30;;;0.30;;
4186;SDS011;2107;52.306;10.484;2022-09-21T09:17:56;0.40;;;0.40;;
4186;SDS011;2107;52.306;10.484;2022-09-21T09:20:31;0.20;;;0.20;;
4186;SDS011;2107;52.306;10.484;2022-09-21T09:23:03;0.40;;;0.40;;
4186;SDS011;2107;52.306;10.484;2022-09-21T09:25:36;0.50;;;0.50;;
4186;SDS011;2107;52.306;10.484;2022-09-21T09:28:12;0.50;;;0.50;;
4186;SDS011;2107;52.306;10.484;2022-09-21T09:30:50;0.60;;;0.60;;
4186;SDS011;2107;52.306;10.484;2022-09-21T09:33:23;0.60;;;0.60;;
4186;SDS011;2107;52.306;10.484;2022-09-21T09:35:54;0.50;;;0.50;;
4186;SDS011;2107;52.306;10.484;2022-09-21T09:38:28;0.70;;;0.70;;
4186;SDS011;2107;52.306;10.484;2022-09-21T09:41:05;0.60;;;0.60;;
4186;SDS011;2107;52.306;10.484;2022-09-21T09:44:02;0.50;;;0.50;;
4186;SDS011;2107;52.306;10.484;2022-09-21T09:46:43;0.70;;;0.70;;
4186;SDS011;2107;52.306;10.484;2022-09-21T09:49:19;0.70;;;0.70;;
4186;SDS011;2107;52.306;10.484;2022-09-21T09:51:57;0.60;;;0.60;;
4186;SDS011;2107;52.306;10.484;2022-09-21T09:54:25;0.67;;;0.67;;
4186;SDS011;2107;52.306;10.484;2022-09-21T09:56:54;0.60;;;0.60;;
4186;SDS011;2107;52.306;10.484;2022-09-21T09:59:23;0.60;;;0.60;;
4186;SDS011;2107;52.306;10.484;2022-09-21T10:01:57;0.60;;;0.60;;
4186;SDS011;2107;52.306;10.484;2022-09-21T10:04:26;0.40;;;0.40;;
4186;SDS011;2107;52.306;10.484;2022-09-21T10:06:53;0.50;;;0.50;;
4186;SDS011;2107;52.306;10.484;2022-09-21T10:09:22;0.57;;;0.57;;
4186;SDS011;2107;52.306;10.484;2022-09-21T10:11:51;0.40;;;0.40;;
4186;SDS011;2107;52.306;10.484;2022-09-21T10:14:22;0.50;;;0.50;;
4186;SDS011;2107;52.306;10.484;2022-09-21T10:16:51;0.57;;;0.57;;
4186;SDS011;2107;52.306;10.484;2022-09-21T10:19:21;0.50;;;0.50;;
4186;SDS011;2107;52.306;10.484;2022-09-21T10:21:52;0.73;;;0.73;;
4186;SDS011;2107;52.306;10.484;2022-09-21T10:24:23;0.50;;;0.50;;
4186;SDS011;2107;52.306;10.484;2022-09-21T10:26:52;0.77;;;0.77;;
4186;SDS011;2107;52.306;10.484;2022-09-21T10:29:29;0.60;;;0.60;;
4186;SDS011;2107;52.306;10.484;2022-09-21T10:31:58;0.60;;;0.60;;
4186;SDS011;2107;52.306;10.484;2022-09-21T10:34:27;0.80;;;0.80;;
4186;SDS011;2107;52.306;10.484;2022-09-21T10:36:56;0.60;;;0.60;;
4186;SDS011;2107;52.306;10.484;2022-09-21T10:39:26;0.70;;;0.70;;
4186;SDS011;2107;52.306;10.484;2022-09-21T10:41:56;0.50;;;0.50;;
4186;SDS011;2107;52.306;10.484;2022-09-21T10:44:33;0.80;;;0.80;;
4186;SDS011;2107;52.306;10.484;2022-09-21T10:47:12;0.40;;;0.40;;
4186;SDS011;2107;52.306;10.484;2022-09-21T10:49:48;0.50;;;0.50;;
4186;SDS011;2107;52.306;10.484;2022-09-21T10:52:19;0.60;;;0.60;;
4186;SDS011;2107;52.306;10.484;2022-09-21T10:54:48;0.40;;;0.40;;
4186;SDS011;2107;52.306;10.484;2022-09-21T10:57:18;0.53;;;0.53;;
4186;SDS011;2107;52.306;10.484;2022-09-21T10:59:48;0.70;;;0.70;;
4186;SDS011;2107;52.306;10.484;2022-09-21T11:02:33;0.60;;;0.60;;
4186;SDS011;2107;52.306;10.484;2022-09-21T11:05:05;0.60;;;0.60;;
4186;SDS011;2107;52.306;10.484;2022-09-21T11:07:40;0.60;;;0.60;;
4186;SDS011;2107;52.306;10.484;2022-09-21T11:10:12;0.60;;;0.60;;
4186;SDS011;2107;52.306;10.484;2022-09-21T11:12:50;0.30;;;0.30;;
4186;SDS011;2107;52.306;10.484;2022-09-21T11:15:28;0.40;;;0.40;;
4186;SDS011;2107;52.306;10.484;2022-09-21T11:18:04;0.40;;;0.40;;
4186;SDS011;2107;52.306;10.484;2022-09-21T11:20:38;0.50;;;0.50;;
4186;SDS011;2107;52.306;10.484;2022-09-21T11:23:14;0.57;;;0.57;;
4186;SDS011;2107;52.306;10.484;2022-09-21T11:25:49;0.60;;;0.60;;
4186;SDS011;2107;52.306;10.484;2022-09-21T11:28:25;0.50;;;0.50;;
4186;SDS011;2107;52.306;10.484;2022-09-21T11:31:02;0.60;;;0.60;;
4186;SDS011;2107;52.306;10.484;2022-09-21T11:33:44;0.60;;;0.60;;
4186;SDS011;2107;52.306;10.484;2022-09-21T11:36:22;0.80;;;0.80;;
4186;SDS011;2107;52.306;10.484;2022-09-21T11:38:59;0.70;;;0.70;;
4186;SDS011;2107;52.306;10.484;2022-09-21T11:41:39;0.70;;;0.70;;
4186;SDS011;2107;52.306;10.484;2022-09-21T11:44:30;0.67;;;0.67;;
4186;SDS011;2107;52.306;10.484;2022-09-21T11:47:16;0.80;;;0.80;;
4186;SDS011;2107;52.306;10.484;2022-09-21T11:50:07;0.70;;;0.70;;
4186;SDS011;2107;52.306;10.484;2022-09-21T11:52:48;0.80;;;0.80;;
4186;SDS011;2107;52.306;10.484;2022-09-21T11:55:38;0.90;;;0.90;;
4186;SDS011;2107;52.306;10.484;2022-09-21T11:58:20;0.90;;;0.90;;
4186;SDS011;2107;52.306;10.484;2022-09-21T12:00:53;1.00;;;1.00;;
4186;SDS011;2107;52.306;10.484;2022-09-21T12:06:46;1.00;;;1.00;;
4186;SDS011;2107;52.306;10.484;2022-09-21T12:09:31;0.97;;;0.97;;
4186;SDS011;2107;52.306;10.484;2022-09-21T12:12:24;1.27;;;1.27;;
4186;SDS011;2107;52.306;10.484;2022-09-21T12:14:59;1.30;;;1.30;;
4186;SDS011;2107;52.306;10.484;2022-09-21T12:17:39;1.23;;;1.23;;
4186;SDS011;2107;52.306;10.484;2022-09-21T12:20:15;1.23;;;1.23;;
4186;SDS011;2107;52.306;10.484;2022-09-21T12:22:48;0.80;;;0.80;;
4186;SDS011;2107;52.306;10.484;2022-09-21T12:25:22;1.10;;;1.10;;
4186;SDS011;2107;52.306;10.484;2022-09-21T12:27:52;0.90;;;0.90;;
4186;SDS011;2107;52.306;10.484;2022-09-21T12:30:23;0.70;;;0.70;;
4186;SDS011;2107;52.306;10.484;2022-09-21T12:32:53;0.80;;;0.80;;
4186;SDS011;2107;52.306;10.484;2022-09-21T12:35:25;1.00;;;1.00;;
4186;SDS011;2107;52.306;10.484;2022-09-21T12:37:59;0.90;;;0.90;;
4186;SDS011;2107;52.306;10.484;2022-09-21T12:40:32;1.00;;;1.00;;
4186;SDS011;2107;52.306;10.484;2022-09-21T12:43:05;1.00;;;1.00;;
4186;SDS011;2107;52.306;10.484;2022-09-21T12:45:40;0.60;;;0.60;;
4186;SDS011;2107;52.306;10.484;2022-09-21T12:48:13;0.50;;;0.50;;
4186;SDS011;2107;52.306;10.484;2022-09-21T12:50:48;0.80;;;0.80;;
4186;SDS011;2107;52.306;10.484;2022-09-21T12:53:19;0.70;;;0.70;;
4186;SDS011;2107;52.306;10.484;2022-09-21T12:55:50;0.70;;;0.70;;
4186;SDS011;2107;52.306;10.484;2022-09-21T12:58:26;0.80;;;0.80;;
4186;SDS011;2107;52.306;10.484;2022-09-21T13:01:07;0.53;;;0.53;;
4186;SDS011;2107;52.306;10.484;2022-09-21T13:03:43;0.60;;;0.60;;
4186;SDS011;2107;52.306;10.484;2022-09-21T13:06:35;0.60;;;0.60;;
4186;SDS011;2107;52.306;10.484;2022-09-21T13:09:19;0.60;;;0.60;;
4186;SDS011;2107;52.306;10.484;2022-09-21T13:11:48;0.90;;;0.90;;
4186;SDS011;2107;52.306;10.484;2022-09-21T13:14:18;0.70;;;0.70;;
4186;SDS011;2107;52.306;10.484;2022-09-21T13:16:52;0.80;;;0.80;;
4186;SDS011;2107;52.306;10.484;2022-09-21T13:19:22;0.90;;;0.90;;
4186;SDS011;2107;52.306;10.484;2022-09-21T13:24:43;0.53;;;0.53;;
4186;SDS011;2107;52.306;10.484;2022-09-21T13:27:12;0.80;;;0.80;;
4186;SDS011;2107;52.306;10.484;2022-09-21T13:29:40;0.70;;;0.70;;
4186;SDS011;2107;52.306;10.484;2022-09-21T13:32:21;0.90;;;0.90;;
4186;SDS011;2107;52.306;10.484;2022-09-21T13:34:48;0.70;;;0.70;;
4186;SDS011;2107;52.306;10.484;2022-09-21T13:43:16;0.90;;;0.90;;
4186;SDS011;2107;52.306;10.484;2022-09-21T13:45:52;0.80;;;0.80;;
4186;SDS011;2107;52.306;10.484;2022-09-21T13:48:21;0.90;;;0.90;;
4186;SDS011;2107;52.306;10.484;2022-09-21T13:50:59;1.10;;;1.10;;
4186;SDS011;2107;52.306;10.484;2022-09-21T13:53:34;1.00;;;1.00;;
4186;SDS011;2107;52.306;10.484;2022-09-21T13:56:07;0.90;;;0.90;;
4186;SDS011;2107;52.306;10.484;2022-09-21T13:58:50;0.50;;;0.50;;
4186;SDS011;2107;52.306;10.484;2022-09-21T14:01:21;0.67;;;0.67;;
4186;SDS011;2107;52.306;10.484;2022-09-21T14:03:51;0.53;;;0.53;;
4186;SDS011;2107;52.306;10.484;2022-09-21T14:06:22;0.50;;;0.50;;
4186;SDS011;2107;52.306;10.484;2022-09-21T14:08:55;0.50;;;0.50;;
4186;SDS011;2107;52.306;10.484;2022-09-21T14:11:28;0.60;;;0.60;;
4186;SDS011;2107;52.306;10.484;2022-09-21T14:14:03;0.70;;;0.70;;
4186;SDS011;2107;52.306;10.484;2022-09-21T14:22:39;0.50;;;0.50;;
4186;SDS011;2107;52.306;10.484;2022-09-21T14:25:45;0.50;;;0.50;;
4186;SDS011;2107;52.306;10.484;2022-09-21T14:28:17;0.70;;;0.70;;
4186;SDS011;2107;52.306;10.484;2022-09-21T14:30:54;0.60;;;0.60;;
4186;SDS011;2107;52.306;10.484;2022-09-21T14:33:29;0.60;;;0.60;;
4186;SDS011;2107;52.306;10.484;2022-09-21T14:36:00;0.40;;;0.40;;
4186;SDS011;2107;52.306;10.484;2022-09-21T14:38:34;0.40;;;0.40;;
4186;SDS011;2107;52.306;10.484;2022-09-21T14:41:08;0.40;;;0.40;;
4186;SDS011;2107;52.306;10.484;2022-09-21T14:43:42;0.50;;;0.50;;
4186;SDS011;2107;52.306;10.484;2022-09-21T14:49:22;0.60;;;0.60;;
4186;SDS011;2107;52.306;10.484;2022-09-21T14:52:02;0.60;;;0.60;;
4186;SDS011;2107;52.306;10.484;2022-09-21T14:54:40;0.50;;;0.50;;
4186;SDS011;2107;52.306;10.484;2022-09-21T14:57:24;0.60;;;0.60;;
4186;SDS011;2107;52.306;10.484;2022-09-21T15:00:10;0.60;;;0.60;;
4186;SDS011;2107;52.306;10.484;2022-09-21T15:02:48;0.70;;;0.70;;
4186;SDS011;2107;52.306;10.484;2022-09-21T15:05:29;0.70;;;0.70;;
4186;SDS011;2107;52.306;10.484;2022-09-21T15:08:07;0.70;;;0.70;;
4186;SDS011;2107;52.306;10.484;2022-09-21T15:11:08;0.50;;;0.50;;
4186;SDS011;2107;52.306;10.484;2022-09-21T15:13:55;0.50;;;0.50;;
4186;SDS011;2107;52.306;10.484;2022-09-21T15:16:45;0.60;;;0.60;;
4186;SDS011;2107;52.306;10.484;2022-09-21T15:19:20;1.40;;;1.40;;
4186;SDS011;2107;52.306;10.484;2022-09-21T15:21:49;1.10;;;1.10;;
4186;SDS011;2107;52.306;10.484;2022-09-21T15:24:18;1.10;;;1.10;;
4186;SDS011;2107;52.306;10.484;2022-09-21T15:26:49;0.67;;;0.67;;
4186;SDS011;2107;52.306;10.484;2022-09-21T15:29:22;0.80;;;0.80;;
4186;SDS011;2107;52.306;10.484;2022-09-21T15:31:51;1.00;;;1.00;;
4186;SDS011;2107;52.306;10.484;2022-09-21T15:34:19;0.60;;;0.60;;
4186;SDS011;2107;52.306;10.484;2022-09-21T15:36:47;0.50;;;0.50;;
4186;SDS011;2107;52.306;10.484;2022-09-21T15:39:24;0.70;;;0.70;;
4186;SDS011;2107;52.306;10.484;2022-09-21T15:42:00;0.80;;;0.80;;
4186;SDS011;2107;52.306;10.484;2022-09-21T15:44:45;0.80;;;0.80;;
4186;SDS011;2107;52.306;10.484;2022-09-21T15:47:15;0.60;;;0.60;;
4186;SDS011;2107;52.306;10.484;2022-09-21T15:49:46;0.77;;;0.77;;
4186;SDS011;2107;52.306;10.484;2022-09-21T15:52:17;0.50;;;0.50;;
4186;SDS011;2107;52.306;10.484;2022-09-21T15:54:50;0.60;;;0.60;;
4186;SDS011;2107;52.306;10.484;2022-09-21T15:57:22;0.60;;;0.60;;
4186;SDS011;2107;52.306;10.484;2022-09-21T15:59:58;0.83;;;0.83;;